Time;durP1;ratioP1;P1;durP2;ratioP2;P2;SDS_P1;SDS_P2;PMS_P1;PMS_P2;Temp;Humidity;BMP_temperature;BMP_pressure;BME280_temperature;BME280_humidity;BME280_pressure;Samples;Min_cycle;Max_cycle;Signal;HPM_P1;HPM_P2
2022/03/02 00:01:28;;;;;;;47.75;25.90;;;4.60;99.90;;;;;;5041321;28;20107;-86
2022/03/02 00:03:54;;;;;;;43.00;24.58;;;4.60;99.90;;;;;;5022245;28;20044;-87
2022/03/02 00:06:20;;;;;;;45.90;25.15;;;4.60;99.90;;;;;;5039895;28;20614;-86
2022/03/02 00:08:45;;;;;;;45.33;25.00;;;4.60;99.90;;;;;;5040695;28;20502;-86
2022/03/02 00:11:11;;;;;;;45.28;24.30;;;4.50;99.90;;;;;;5041837;28;20187;-87
2022/03/02 00:13:38;;;;;;;45.15;24.48;;;4.60;99.90;;;;;;5042142;28;20092;-86
2022/03/02 00:16:04;;;;;;;48.55;25.15;;;4.50;99.90;;;;;;5040917;28;20047;-87
2022/03/02 00:18:29;;;;;;;47.90;27.08;;;4.50;99.90;;;;;;5042171;28;20045;-86
2022/03/02 00:20:56;;;;;;;45.50;25.40;;;4.70;99.90;;;;;;5040644;28;20049;-86
2022/03/02 00:23:21;;;;;;;43.50;25.35;;;4.50;99.90;;;;;;5050538;28;20495;-86
2022/03/02 00:25:47;;;;;;;47.67;25.23;;;4.50;99.90;;;;;;5056232;28;20043;-86
2022/03/02 00:28:13;;;;;;;52.50;26.52;;;4.50;99.90;;;;;;5037601;28;20068;-86
2022/03/02 00:30:39;;;;;;;47.85;25.75;;;4.50;99.90;;;;;;5054949;28;20045;-86
2022/03/02 00:33:05;;;;;;;47.88;25.15;;;4.50;99.90;;;;;;5052638;28;20080;-87
2022/03/02 00:35:30;;;;;;;47.78;25.60;;;4.60;99.90;;;;;;5038194;28;20103;-86
2022/03/02 00:37:56;;;;;;;44.47;24.02;;;4.50;99.90;;;;;;5038991;28;20059;-86
2022/03/02 00:40:21;;;;;;;43.95;24.70;;;4.40;99.90;;;;;;5038145;28;20045;-87
2022/03/02 00:42:47;;;;;;;49.97;25.50;;;4.50;99.90;;;;;;5039691;28;20419;-86
2022/03/02 00:45:13;;;;;;;49.28;25.95;;;4.40;99.90;;;;;;5039144;28;20111;-86
2022/03/02 00:47:39;;;;;;;46.22;25.17;;;4.70;99.90;;;;;;5039250;28;20124;-86
2022/03/02 00:50:06;;;;;;;49.17;25.60;;;4.40;99.90;;;;;;5038120;28;20053;-86
2022/03/02 00:52:32;;;;;;;42.13;25.55;;;4.40;99.90;;;;;;5024520;28;20052;-87
2022/03/02 00:54:58;;;;;;;47.63;26.25;;;4.40;99.90;;;;;;5039786;28;20380;-86
2022/03/02 00:57:23;;;;;;;50.22;27.48;;;4.90;99.90;;;;;;5039024;28;20038;-86
2022/03/02 00:59:49;;;;;;;49.05;26.38;;;4.40;99.90;;;;;;5021992;28;20408;-87
2022/03/02 01:02:14;;;;;;;47.65;27.05;;;4.40;99.90;;;;;;5038814;28;20041;-86
2022/03/02 01:04:40;;;;;;;49.80;26.13;;;4.80;99.90;;;;;;5038992;28;20238;-86
2022/03/02 01:07:06;;;;;;;50.60;26.30;;;4.70;99.90;;;;;;5038470;28;20041;-86
2022/03/02 01:09:31;;;;;;;47.95;26.10;;;4.60;99.90;;;;;;5038889;28;20442;-86
2022/03/02 01:11:57;;;;;;;51.55;26.45;;;4.40;99.90;;;;;;5040291;28;20166;-86
2022/03/02 01:14:23;;;;;;;52.08;27.50;;;4.50;99.90;;;;;;5040583;28;20084;-86
2022/03/02 01:16:49;;;;;;;48.10;26.17;;;4.40;99.90;;;;;;5023049;28;20042;-86
2022/03/02 01:19:15;;;;;;;54.92;30.98;;;5.00;99.90;;;;;;5039384;28;20038;-86
2022/03/02 01:21:40;;;;;;;54.75;28.02;;;4.50;99.90;;;;;;5040430;28;20052;-86
2022/03/02 01:24:06;;;;;;;51.55;27.08;;;4.30;99.90;;;;;;5022210;28;20048;-86
2022/03/02 01:26:32;;;;;;;51.83;28.90;;;4.40;99.90;;;;;;5041853;28;20056;-86
2022/03/02 01:29:05;;;;;;;58.33;28.15;;;4.30;99.90;;;;;;5041528;28;20033;-86
2022/03/02 01:31:31;;;;;;;53.88;30.52;;;4.50;99.90;;;;;;5041553;28;20061;-86
2022/03/02 01:33:57;;;;;;;56.63;31.30;;;4.80;99.90;;;;;;5040853;28;20041;-86
2022/03/02 01:36:23;;;;;;;65.07;31.52;;;4.30;99.90;;;;;;5042327;28;20049;-86
2022/03/02 01:38:49;;;;;;;56.60;31.45;;;4.40;99.90;;;;;;5042251;28;20049;-86
2022/03/02 01:41:16;;;;;;;57.53;31.20;;;4.30;99.90;;;;;;5042915;28;20136;-86
2022/03/02 01:43:43;;;;;;;61.33;30.65;;;4.30;99.90;;;;;;5043199;28;20037;-86
2022/03/02 01:46:19;;;;;;;56.05;29.27;;;4.30;99.90;;;;;;5042126;28;20053;-86
2022/03/02 01:48:45;;;;;;;60.38;32.88;;;4.40;99.90;;;;;;5040012;28;20045;-86
2022/03/02 01:51:12;;;;;;;60.78;32.58;;;4.30;99.90;;;;;;5040927;28;20449;-86
2022/03/02 01:53:39;;;;;;;54.55;30.90;;;4.30;99.90;;;;;;5040530;28;20057;-86
2022/03/02 01:56:04;;;;;;;55.80;30.75;;;4.30;99.90;;;;;;5039340;28;20044;-86
2022/03/02 01:58:30;;;;;;;55.42;31.02;;;4.30;99.90;;;;;;5038459;28;20116;-86
2022/03/02 02:00:57;;;;;;;57.92;31.45;;;4.30;99.90;;;;;;5039193;28;20415;-86
2022/03/02 02:03:23;;;;;;;56.47;30.20;;;4.20;99.90;;;;;;5038209;28;20049;-86
2022/03/02 02:05:49;;;;;;;61.10;32.30;;;4.30;99.90;;;;;;5038176;28;20037;-86
2022/03/02 02:08:15;;;;;;;63.70;30.80;;;4.20;99.90;;;;;;5036507;28;20069;-86
2022/03/02 02:10:40;;;;;;;57.75;30.52;;;4.20;99.90;;;;;;5019716;28;20052;-86
2022/03/02 02:13:06;;;;;;;56.00;32.15;;;4.80;99.90;;;;;;5036892;28;20105;-86
2022/03/02 02:15:32;;;;;;;51.13;29.40;;;4.20;99.90;;;;;;5037889;28;20087;-86
2022/03/02 02:17:57;;;;;;;52.92;28.95;;;4.20;99.90;;;;;;5036731;28;20044;-86
2022/03/02 02:20:23;;;;;;;61.15;32.22;;;4.50;99.90;;;;;;5037527;28;20042;-86
2022/03/02 02:22:50;;;;;;;58.63;31.08;;;4.20;99.90;;;;;;5037374;28;20049;-86
2022/03/02 02:25:16;;;;;;;60.85;32.10;;;4.20;99.90;;;;;;5035399;28;20037;-86
2022/03/02 02:27:46;;;;;;;60.75;31.00;;;4.20;99.90;;;;;;5037230;28;20044;-86
2022/03/02 02:30:14;;;;;;;59.97;31.27;;;4.10;99.90;;;;;;5037790;28;20120;-86
2022/03/02 02:32:41;;;;;;;62.22;33.40;;;4.10;99.90;;;;;;5037734;28;20120;-86
2022/03/02 02:35:09;;;;;;;57.35;30.33;;;4.10;99.90;;;;;;5035627;28;20373;-86
2022/03/02 02:37:36;;;;;;;64.43;32.17;;;4.10;99.90;;;;;;5036512;28;20080;-87
2022/03/02 02:40:09;;;;;;;57.63;31.27;;;4.10;99.90;;;;;;5036783;28;20099;-86
2022/03/02 02:42:35;;;;;;;59.25;31.95;;;4.00;99.90;;;;;;5083302;22;21896;-86
2022/03/02 02:45:01;;;;;;;58.63;31.23;;;4.00;99.90;;;;;;5052126;28;20273;-85
2022/03/02 02:47:26;;;;;;;60.25;31.42;;;4.00;99.90;;;;;;5060023;28;20044;-85
2022/03/02 02:49:52;;;;;;;61.72;33.42;;;3.90;99.90;;;;;;5073034;28;20044;-85
2022/03/02 02:52:18;;;;;;;64.43;33.42;;;3.90;99.90;;;;;;5072751;28;20181;-85
2022/03/02 02:54:43;;;;;;;63.40;33.85;;;3.90;99.90;;;;;;5058640;28;20064;-85
2022/03/02 02:57:10;;;;;;;62.25;34.53;;;3.80;99.90;;;;;;5052934;28;20139;-86
2022/03/02 02:59:35;;;;;;;64.95;34.25;;;3.80;99.90;;;;;;5052751;28;20044;-85
2022/03/02 03:02:01;;;;;;;64.15;33.90;;;3.70;99.90;;;;;;5035211;28;20060;-85
2022/03/02 03:04:27;;;;;;;71.05;36.20;;;3.60;99.90;;;;;;5052421;28;20472;-85
2022/03/02 03:06:52;;;;;;;67.55;37.65;;;3.60;99.90;;;;;;5052768;28;20041;-85
2022/03/02 03:09:18;;;;;;;63.05;32.95;;;3.50;99.90;;;;;;5034774;28;20120;-85
2022/03/02 03:11:44;;;;;;;70.97;35.13;;;3.40;99.90;;;;;;5034769;28;20083;-85
2022/03/02 03:14:12;;;;;;;68.43;32.00;;;3.30;99.90;;;;;;5034967;28;20052;-85
2022/03/02 03:16:37;;;;;;;71.00;37.95;;;3.20;99.90;;;;;;5052490;28;20076;-85
2022/03/02 03:19:03;;;;;;;71.18;35.45;;;3.10;99.90;;;;;;5040490;28;20049;-85
2022/03/02 03:21:29;;;;;;;76.85;36.03;;;3.00;99.90;;;;;;5032596;28;20052;-85
2022/03/02 03:23:54;;;;;;;68.65;37.65;;;2.90;99.90;;;;;;5042043;28;20124;-85
2022/03/02 03:26:20;;;;;;;75.13;34.97;;;2.80;99.90;;;;;;5045061;28;20037;-85
2022/03/02 03:28:46;;;;;;;71.38;37.72;;;2.60;99.90;;;;;;5021066;28;20132;-85
2022/03/02 03:31:11;;;;;;;73.38;36.88;;;2.60;99.90;;;;;;5032547;28;20049;-85
2022/03/02 03:33:37;;;;;;;76.25;36.88;;;2.60;99.90;;;;;;5032627;28;20044;-86
2022/03/02 03:36:03;;;;;;;79.60;39.40;;;2.60;99.90;;;;;;5042594;28;20095;-85
2022/03/02 03:38:29;;;;;;;76.80;38.42;;;2.60;99.90;;;;;;5052301;28;20083;-85
2022/03/02 03:40:54;;;;;;;79.82;39.55;;;2.50;99.90;;;;;;5052342;28;20081;-85
2022/03/02 03:43:20;;;;;;;77.15;37.70;;;2.40;99.90;;;;;;5023715;28;20527;-85
2022/03/02 03:45:46;;;;;;;81.28;39.28;;;2.30;99.90;;;;;;5032253;28;20053;-85
2022/03/02 03:48:11;;;;;;;81.05;36.85;;;2.20;99.90;;;;;;5032321;28;20412;-83
2022/03/02 03:50:37;;;;;;;83.78;41.05;;;2.20;99.90;;;;;;5014612;28;20492;-86
2022/03/02 03:53:03;;;;;;;87.22;40.17;;;2.10;99.90;;;;;;5014398;28;20046;-83
2022/03/02 03:55:28;;;;;;;80.63;38.85;;;2.10;99.90;;;;;;5033668;28;20400;-84
2022/03/02 03:57:54;;;;;;;90.20;41.03;;;2.00;99.90;;;;;;5036570;28;20045;-84
2022/03/02 04:00:20;;;;;;;90.68;41.47;;;1.90;99.90;;;;;;5033959;28;20403;-84
2022/03/02 04:02:46;;;;;;;91.43;40.67;;;2.50;99.90;;;;;;5017209;28;20589;-85
2022/03/02 04:05:12;;;;;;;87.88;39.72;;;1.80;99.90;;;;;;5017408;28;20051;-85
2022/03/02 04:07:38;;;;;;;91.55;42.03;;;1.70;99.90;;;;;;5016781;28;20041;-85
2022/03/02 04:10:05;;;;;;;90.63;41.22;;;1.60;99.90;;;;;;5034507;28;20095;-85
2022/03/02 04:12:31;;;;;;;98.50;41.95;;;1.50;99.90;;;;;;5033737;28;20045;-83
2022/03/02 04:14:56;;;;;;;87.70;39.35;;;1.40;99.90;;;;;;5017515;28;20038;-84
2022/03/02 04:17:23;;;;;;;105.75;44.13;;;1.40;99.90;;;;;;5033800;28;20041;-84
2022/03/02 04:19:49;;;;;;;93.55;40.28;;;1.40;99.90;;;;;;5016803;28;20053;-84
2022/03/02 04:22:14;;;;;;;107.28;45.05;;;1.30;99.90;;;;;;5018907;28;20049;-84
2022/03/02 04:24:40;;;;;;;102.95;44.30;;;1.40;99.90;;;;;;5034501;28;20421;-83
2022/03/02 04:27:05;;;;;;;106.55;43.30;;;1.40;99.90;;;;;;5017578;28;20056;-84
2022/03/02 04:29:32;;;;;;;108.25;47.05;;;1.40;99.90;;;;;;5016553;28;20402;-84
2022/03/02 04:31:58;;;;;;;115.22;46.15;;;1.30;99.90;;;;;;5017926;28;20530;-84
2022/03/02 04:34:23;;;;;;;113.18;45.58;;;1.30;99.90;;;;;;5019419;28;20056;-84
2022/03/02 04:36:49;;;;;;;115.05;44.95;;;1.20;99.90;;;;;;5038601;28;20385;-84
2022/03/02 04:39:14;;;;;;;129.90;49.28;;;1.20;99.90;;;;;;5019794;28;20041;-84
2022/03/02 04:41:40;;;;;;;123.05;45.40;;;1.10;99.90;;;;;;5020097;28;20060;-84
2022/03/02 04:44:06;;;;;;;120.78;48.03;;;1.00;99.90;;;;;;5019492;28;20049;-84
2022/03/02 04:46:31;;;;;;;125.95;49.25;;;1.00;99.90;;;;;;5038464;28;20527;-86
2022/03/02 04:48:57;;;;;;;136.73;48.85;;;0.90;99.90;;;;;;5021225;28;20049;-85
2022/03/02 04:51:22;;;;;;;119.63;48.53;;;0.90;99.90;;;;;;5019170;28;20049;-85
2022/03/02 04:53:50;;;;;;;124.03;47.10;;;0.80;99.90;;;;;;5034631;28;20033;-85
2022/03/02 04:56:16;;;;;;;143.55;53.47;;;0.80;99.90;;;;;;5031749;28;20148;-85
2022/03/02 04:58:41;;;;;;;131.25;47.80;;;0.70;99.90;;;;;;5016414;28;20045;-85
2022/03/02 05:01:07;;;;;;;134.40;49.20;;;0.70;99.90;;;;;;5034432;28;20139;-86
2022/03/02 05:03:33;;;;;;;128.40;50.35;;;0.60;99.90;;;;;;5034632;28;20091;-85
2022/03/02 05:05:58;;;;;;;131.73;47.53;;;0.60;99.90;;;;;;5016738;28;20048;-85
2022/03/02 05:08:24;;;;;;;133.70;48.78;;;0.50;99.90;;;;;;5034789;28;20077;-85
2022/03/02 05:10:49;;;;;;;139.07;51.65;;;0.40;99.90;;;;;;5034783;28;20092;-85
2022/03/02 05:13:15;;;;;;;133.07;50.78;;;0.50;99.90;;;;;;5034698;28;20096;-85
2022/03/02 05:15:41;;;;;;;133.13;49.67;;;0.50;99.90;;;;;;5034742;28;20049;-85
2022/03/02 05:18:06;;;;;;;141.20;50.65;;;0.50;99.90;;;;;;5036819;28;20412;-85
2022/03/02 05:20:32;;;;;;;142.98;51.83;;;0.50;99.90;;;;;;5017354;28;20038;-85
2022/03/02 05:22:57;;;;;;;162.40;56.17;;;0.40;99.90;;;;;;5017415;28;20199;-85
2022/03/02 05:25:26;;;;;;;148.10;51.58;;;0.40;99.90;;;;;;5016892;28;20045;-85
2022/03/02 05:27:51;;;;;;;142.73;49.53;;;0.40;99.90;;;;;;5034691;28;20098;-86
2022/03/02 05:30:19;;;;;;;153.57;54.80;;;0.30;99.90;;;;;;5016847;28;20128;-85
2022/03/02 05:32:45;;;;;;;150.25;51.15;;;0.30;99.90;;;;;;5017579;28;20045;-86
2022/03/02 05:35:10;;;;;;;139.80;52.58;;;0.20;99.90;;;;;;5017345;28;20045;-86
2022/03/02 05:37:42;;;;;;;152.50;51.35;;;0.20;99.90;;;;;;5034812;28;20045;-85
2022/03/02 05:40:09;;;;;;;160.43;55.38;;;0.10;99.90;;;;;;5032373;28;20404;-85
2022/03/02 05:42:34;;;;;;;153.50;52.90;;;0.10;99.90;;;;;;5030668;28;20057;-85
2022/03/02 05:45:00;;;;;;;153.32;51.40;;;0.00;99.90;;;;;;5031634;28;20388;-86
2022/03/02 05:47:25;;;;;;;145.25;49.67;;;-0.20;99.90;;;;;;5020330;28;20072;-84
2022/03/02 05:49:51;;;;;;;157.73;52.03;;;-0.30;99.90;;;;;;5014300;28;20053;-84
2022/03/02 05:52:18;;;;;;;152.60;53.35;;;-0.30;99.90;;;;;;5013170;28;20049;-84
2022/03/02 05:54:43;;;;;;;163.48;55.95;;;-0.40;99.90;;;;;;5033309;28;20061;-85
2022/03/02 05:57:09;;;;;;;170.15;56.78;;;-0.30;99.90;;;;;;5015335;28;20063;-85
2022/03/02 05:59:34;;;;;;;177.80;55.35;;;-0.20;99.90;;;;;;5032409;28;20045;-85
2022/03/02 06:02:00;;;;;;;176.10;54.60;;;-0.20;99.90;;;;;;5033547;28;20095;-85
2022/03/02 06:04:27;;;;;;;166.90;53.75;;;-0.10;99.90;;;;;;5034605;28;20128;-85
2022/03/02 06:06:52;;;;;;;175.35;58.13;;;-0.10;99.90;;;;;;5018549;28;20057;-84
2022/03/02 06:09:18;;;;;;;180.27;56.85;;;0.00;99.90;;;;;;5036756;28;20049;-85
2022/03/02 06:11:44;;;;;;;175.63;57.42;;;0.10;99.90;;;;;;5037362;28;20387;-84
2022/03/02 06:14:11;;;;;;;187.07;59.30;;;0.10;99.90;;;;;;5020047;28;20185;-84
2022/03/02 06:16:37;;;;;;;172.70;56.67;;;0.10;99.90;;;;;;5019650;28;20053;-84
2022/03/02 06:19:02;;;;;;;190.95;58.65;;;0.00;99.90;;;;;;5017921;28;20506;-84
2022/03/02 06:21:30;;;;;;;168.75;54.00;;;-0.10;99.90;;;;;;5019019;28;20049;-85
2022/03/02 06:23:56;;;;;;;176.32;57.53;;;-0.20;99.90;;;;;;5017691;28;20049;-84
2022/03/02 06:26:23;;;;;;;184.93;57.17;;;-0.30;99.90;;;;;;5018033;28;20038;-85
2022/03/02 06:28:49;;;;;;;172.50;58.53;;;-0.30;99.90;;;;;;5018406;28;20541;-85
2022/03/02 06:31:15;;;;;;;188.05;56.72;;;-0.30;99.90;;;;;;5035712;28;20052;-85
2022/03/02 06:33:40;;;;;;;176.55;56.45;;;-0.30;99.90;;;;;;5035475;28;20053;-85
2022/03/02 06:36:06;;;;;;;184.45;60.15;;;-0.20;99.90;;;;;;5018426;28;20045;-85
2022/03/02 06:38:33;;;;;;;188.25;60.22;;;-0.10;99.90;;;;;;5017451;28;20072;-85
2022/03/02 06:41:03;;;;;;;194.13;61.38;;;0.00;99.90;;;;;;5017260;28;20045;-85
2022/03/02 06:43:39;;;;;;;183.75;61.28;;;0.00;99.90;;;;;;5034473;28;20053;-85
2022/03/02 06:46:16;;;;;;;181.00;61.10;;;0.10;99.90;;;;;;5016751;28;20053;-85
2022/03/02 06:48:47;;;;;;;180.25;61.30;;;0.20;99.90;;;;;;5017466;28;20195;-85
2022/03/02 06:51:18;;;;;;;190.05;64.68;;;0.40;99.90;;;;;;5034584;28;20049;-85
2022/03/02 06:53:45;;;;;;;181.13;64.15;;;0.50;99.90;;;;;;5034474;28;20060;-85
2022/03/02 06:56:17;;;;;;;188.95;64.57;;;0.50;99.90;;;;;;5017058;28;20053;-85
2022/03/02 06:58:50;;;;;;;194.63;66.68;;;0.50;99.90;;;;;;5034991;28;20088;-85
2022/03/02 07:01:21;;;;;;;190.52;65.40;;;0.50;99.90;;;;;;5017206;28;20083;-85
2022/03/02 07:03:50;;;;;;;177.35;61.30;;;0.50;99.90;;;;;;5016478;28;20069;-85
2022/03/02 07:06:17;;;;;;;184.07;63.35;;;0.50;99.90;;;;;;5015635;28;20049;-85
2022/03/02 07:08:45;;;;;;;189.52;66.95;;;0.50;99.90;;;;;;5015703;28;20053;-85
2022/03/02 07:11:11;;;;;;;187.07;63.75;;;0.50;99.90;;;;;;5033484;28;20045;-85
2022/03/02 07:13:37;;;;;;;183.13;66.93;;;0.50;99.90;;;;;;5016661;28;20041;-85
2022/03/02 07:16:04;;;;;;;175.48;62.65;;;0.50;99.90;;;;;;5033984;28;20050;-85
2022/03/02 07:18:29;;;;;;;177.10;62.42;;;0.60;99.90;;;;;;5016458;28;20403;-85
2022/03/02 07:20:57;;;;;;;165.20;61.60;;;0.70;99.90;;;;;;5015684;28;20095;-85
2022/03/02 07:23:27;;;;;;;180.52;64.90;;;0.80;99.90;;;;;;4999383;28;20468;-85
2022/03/02 07:25:58;;;;;;;168.98;61.03;;;0.80;99.90;;;;;;5015317;28;20049;-85
2022/03/02 07:28:26;;;;;;;174.93;61.58;;;0.80;99.90;;;;;;5033142;28;20049;-85
2022/03/02 07:30:53;;;;;;;185.82;66.63;;;0.90;99.90;;;;;;5015312;28;20046;-85
2022/03/02 07:33:22;;;;;;;179.18;62.35;;;1.00;99.90;;;;;;5014611;28;20068;-85
2022/03/02 07:35:56;;;;;;;167.15;61.25;;;1.10;99.90;;;;;;5014963;28;20068;-85
2022/03/02 07:38:22;;;;;;;166.15;62.38;;;1.10;99.90;;;;;;5032456;28;20052;-85
2022/03/02 07:40:49;;;;;;;171.45;61.70;;;1.10;99.90;;;;;;5032554;28;20133;-85
2022/03/02 07:43:15;;;;;;;172.45;62.03;;;1.20;99.90;;;;;;5032244;28;20058;-85
2022/03/02 07:45:42;;;;;;;156.80;59.13;;;1.20;99.90;;;;;;5032752;28;20072;-85
2022/03/02 07:48:10;;;;;;;153.02;60.00;;;1.40;99.90;;;;;;5032980;28;20495;-85
2022/03/02 07:50:37;;;;;;;148.32;62.00;;;1.40;99.90;;;;;;5013945;28;20050;-85
2022/03/02 07:53:03;;;;;;;140.32;58.67;;;1.50;99.90;;;;;;5031636;28;20830;-84
2022/03/02 07:55:29;;;;;;;126.80;53.28;;;1.60;99.90;;;;;;5026186;28;20416;-85
2022/03/02 07:57:56;;;;;;;134.93;54.17;;;1.60;99.90;;;;;;5028500;28;20047;-85
2022/03/02 08:00:23;;;;;;;122.88;55.15;;;1.70;99.90;;;;;;5010601;28;20053;-85
2022/03/02 08:02:51;;;;;;;127.35;57.33;;;1.80;99.90;;;;;;5028774;28;20049;-85
2022/03/02 08:05:18;;;;;;;122.78;54.13;;;1.80;99.90;;;;;;5028463;28;20084;-85
2022/03/02 08:07:44;;;;;;;115.97;50.25;;;1.90;99.90;;;;;;5032789;28;20042;-85
2022/03/02 08:10:10;;;;;;;121.82;52.58;;;2.00;99.90;;;;;;5014590;28;20053;-85
2022/03/02 08:12:35;;;;;;;109.93;50.60;;;2.20;99.90;;;;;;5031228;28;20132;-85
2022/03/02 08:15:03;;;;;;;105.18;48.50;;;2.40;99.90;;;;;;5017622;28;20052;-85
2022/03/02 08:17:28;;;;;;;98.82;45.15;;;2.40;99.90;;;;;;5033689;28;20053;-85
2022/03/02 08:19:54;;;;;;;83.38;41.00;;;2.40;99.90;;;;;;5034183;28;20487;-85
2022/03/02 08:22:24;;;;;;;77.90;43.65;;;2.50;99.90;;;;;;5051794;28;20124;-86
2022/03/02 08:25:12;;;;;;;76.13;39.38;;;2.60;99.90;;;;;;5052462;28;20071;-86
2022/03/02 08:27:40;;;;;;;75.18;39.00;;;2.60;99.90;;;;;;5052210;28;20045;-86
2022/03/02 08:30:06;;;;;;;73.18;37.60;;;2.70;99.90;;;;;;5034220;28;20067;-86
2022/03/02 08:32:37;;;;;;;68.90;35.88;;;2.80;99.90;;;;;;5034153;28;20060;-85
2022/03/02 08:35:04;;;;;;;69.18;35.15;;;2.80;99.90;;;;;;5052241;28;20092;-85
2022/03/02 08:37:31;;;;;;;66.78;34.15;;;2.80;99.90;;;;;;5051650;28;20084;-85
2022/03/02 08:39:58;;;;;;;69.25;33.50;;;2.80;99.90;;;;;;5051646;28;20076;-85
2022/03/02 08:42:25;;;;;;;64.75;32.78;;;2.90;99.90;;;;;;5034588;28;20053;-85
2022/03/02 08:44:50;;;;;;;56.72;30.25;;;3.00;99.90;;;;;;5051685;28;20514;-86
2022/03/02 08:47:16;;;;;;;59.00;30.80;;;3.00;99.90;;;;;;5051531;28;20048;-86
2022/03/02 08:49:42;;;;;;;56.00;30.40;;;3.10;99.90;;;;;;5047775;28;20045;-87
2022/03/02 08:52:08;;;;;;;57.30;31.13;;;3.30;99.90;;;;;;5031846;28;20042;-87
2022/03/02 08:54:45;;;;;;;54.53;29.95;;;3.30;99.90;;;;;;5014902;28;20327;-86
2022/03/02 08:57:10;;;;;;;61.38;31.35;;;3.40;99.90;;;;;;5014063;28;20053;-86
2022/03/02 08:59:38;;;;;;;55.38;30.17;;;3.50;99.90;;;;;;5014052;28;20488;-86
2022/03/02 09:02:07;;;;;;;55.00;28.80;;;3.60;99.90;;;;;;5013808;28;20037;-86
2022/03/02 09:04:35;;;;;;;60.40;30.60;;;3.60;99.90;;;;;;5039024;28;20107;-86
2022/03/02 09:07:03;;;;;;;58.70;30.42;;;3.60;99.90;;;;;;5040639;28;20116;-86
2022/03/02 09:09:29;;;;;;;54.58;29.85;;;4.30;99.90;;;;;;5031483;28;20041;-86
2022/03/02 09:11:56;;;;;;;52.85;29.10;;;3.80;99.90;;;;;;5013914;28;21030;-86
2022/03/02 09:14:22;;;;;;;52.78;29.95;;;3.80;99.90;;;;;;5024047;28;20041;-86
2022/03/02 09:16:49;;;;;;;56.30;32.38;;;4.90;99.90;;;;;;5033811;28;20069;-86
2022/03/02 09:19:15;;;;;;;53.03;27.05;;;4.10;99.90;;;;;;5014669;28;20057;-86
2022/03/02 09:21:43;;;;;;;51.80;29.08;;;4.10;99.90;;;;;;5031502;28;20061;-83
2022/03/02 09:24:10;;;;;;;49.15;26.65;;;4.30;99.90;;;;;;5014362;28;20129;-86
2022/03/02 09:26:36;;;;;;;45.35;26.48;;;4.30;99.90;;;;;;5013415;28;20085;-86
2022/03/02 09:29:04;;;;;;;53.22;26.88;;;4.40;99.90;;;;;;5013343;28;20069;-86
2022/03/02 09:31:33;;;;;;;48.75;26.58;;;4.40;99.90;;;;;;5013067;28;20083;-84
2022/03/02 09:34:01;;;;;;;51.95;27.10;;;4.60;99.90;;;;;;5013101;28;20037;-84
2022/03/02 09:36:26;;;;;;;50.38;23.58;;;4.60;99.90;;;;;;5012724;28;20180;-84
2022/03/02 09:38:53;;;;;;;46.40;26.50;;;4.70;99.90;;;;;;5012571;28;20128;-83
2022/03/02 09:41:35;;;;;;;53.30;29.10;;;4.70;99.90;;;;;;5012337;28;20517;-84
2022/03/02 09:44:02;;;;;;;42.50;26.02;;;4.80;99.90;;;;;;5029664;28;20065;-84
2022/03/02 09:46:32;;;;;;;46.47;26.35;;;4.90;99.90;;;;;;5030673;28;20160;-84
2022/03/02 09:49:06;;;;;;;45.33;24.67;;;5.00;99.90;;;;;;5030506;28;20109;-85
2022/03/02 09:51:33;;;;;;;47.28;25.15;;;5.10;99.90;;;;;;5029934;28;20132;-84
2022/03/02 09:54:02;;;;;;;45.88;26.35;;;5.20;99.90;;;;;;5030460;28;20095;-85
2022/03/02 09:56:31;;;;;;;45.05;25.08;;;5.20;99.90;;;;;;5012699;28;20061;-86
2022/03/02 09:58:58;;;;;;;48.38;25.15;;;5.30;99.90;;;;;;5013694;28;20045;-86
2022/03/02 10:01:24;;;;;;;42.00;24.52;;;5.40;99.90;;;;;;5030817;28;20056;-84
2022/03/02 10:03:52;;;;;;;50.80;26.60;;;5.50;99.90;;;;;;5044034;28;20628;-84
2022/03/02 10:06:19;;;;;;;44.15;25.13;;;5.60;99.90;;;;;;5031984;28;20064;-84
2022/03/02 10:08:52;;;;;;;43.92;24.63;;;5.60;99.90;;;;;;5032427;28;20048;-83
2022/03/02 10:11:23;;;;;;;43.85;22.88;;;5.70;99.90;;;;;;5033026;28;20470;-84
2022/03/02 10:13:50;;;;;;;44.22;25.30;;;5.80;99.90;;;;;;5032608;28;20495;-84
2022/03/02 10:16:22;;;;;;;42.40;23.30;;;5.80;99.90;;;;;;5033697;28;20491;-86
2022/03/02 10:18:59;;;;;;;42.58;24.17;;;6.00;99.90;;;;;;5032924;28;20345;-85
2022/03/02 10:21:33;;;;;;;37.90;22.60;;;6.00;99.90;;;;;;4994071;28;20052;-83
2022/03/02 10:24:01;;;;;;;38.03;21.65;;;6.10;99.90;;;;;;4992520;28;20124;-84
2022/03/02 10:26:29;;;;;;;43.60;22.02;;;6.30;99.90;;;;;;5010946;28;20052;-83
2022/03/02 10:29:03;;;;;;;42.92;24.17;;;6.40;99.90;;;;;;4993907;28;20085;-83
2022/03/02 10:31:45;;;;;;;41.55;24.67;;;6.50;99.90;;;;;;5009669;28;20042;-84
2022/03/02 10:34:29;;;;;;;39.47;22.60;;;6.70;99.90;;;;;;4992766;28;20050;-84
2022/03/02 10:37:05;;;;;;;38.03;20.40;;;7.30;99.90;;;;;;5010173;28;20183;-84
2022/03/02 10:39:54;;;;;;;33.85;21.10;;;7.10;99.90;;;;;;5029348;28;20049;-83
2022/03/02 10:42:31;;;;;;;38.95;22.10;;;7.30;99.90;;;;;;5029638;28;20099;-83
2022/03/02 10:45:20;;;;;;;33.67;20.52;;;7.60;99.90;;;;;;5029859;28;20555;-86
2022/03/02 10:47:58;;;;;;;29.25;18.15;;;7.80;99.90;;;;;;5029807;28;20042;-84
2022/03/02 10:50:32;;;;;;;29.90;19.40;;;7.90;99.90;;;;;;5029642;28;20084;-84
2022/03/02 10:53:01;;;;;;;35.72;19.65;;;7.90;99.90;;;;;;5012115;28;20037;-84
2022/03/02 10:55:29;;;;;;;33.08;19.42;;;8.20;99.90;;;;;;5029798;28;20049;-84
2022/03/02 10:57:55;;;;;;;31.85;19.58;;;8.20;99.90;;;;;;5030517;28;20053;-85
2022/03/02 11:00:22;;;;;;;29.10;17.95;;;8.40;99.90;;;;;;5029812;28;20515;-85
2022/03/02 11:02:57;;;;;;;30.60;18.73;;;8.40;99.90;;;;;;5028975;28;20673;-84
2022/03/02 11:05:24;;;;;;;31.05;18.08;;;8.60;99.90;;;;;;5011690;28;20516;-84
2022/03/02 11:07:50;;;;;;;30.70;19.10;;;8.70;99.90;;;;;;5032297;28;20056;-84
2022/03/02 11:10:21;;;;;;;27.92;17.85;;;8.90;99.90;;;;;;5011514;28;20049;-84
2022/03/02 11:12:49;;;;;;;29.38;17.73;;;8.70;99.90;;;;;;5029524;28;20081;-85
2022/03/02 11:15:18;;;;;;;30.42;18.45;;;8.90;99.90;;;;;;5030585;28;20045;-85
2022/03/02 11:17:58;;;;;;;31.38;18.30;;;9.10;99.90;;;;;;4995478;28;20061;-84
2022/03/02 11:20:26;;;;;;;29.13;18.05;;;9.30;99.90;;;;;;5029868;28;20042;-84
2022/03/02 11:22:55;;;;;;;31.23;19.10;;;9.40;99.90;;;;;;5030698;28;20609;-86
2022/03/02 11:25:44;;;;;;;31.45;19.58;;;9.50;99.90;;;;;;5012241;28;20076;-86
2022/03/02 11:28:14;;;;;;;32.92;20.80;;;9.50;99.90;;;;;;5012059;28;20057;-86
2022/03/02 11:30:46;;;;;;;27.80;17.02;;;9.50;99.90;;;;;;5013548;28;20041;-85
2022/03/02 11:33:11;;;;;;;28.42;18.33;;;9.60;99.90;;;;;;5016494;28;20116;-87
2022/03/02 11:35:37;;;;;;;29.63;18.48;;;9.60;99.70;;;;;;5015629;28;20527;-85
2022/03/02 11:38:05;;;;;;;28.85;19.33;;;9.60;99.90;;;;;;5015332;28;20060;-86
2022/03/02 11:40:45;;;;;;;26.35;17.60;;;9.60;99.90;;;;;;5015717;28;20055;-86
2022/03/02 11:43:18;;;;;;;28.05;18.23;;;9.50;99.40;;;;;;5036662;28;20136;-86
2022/03/02 11:45:44;;;;;;;32.30;18.48;;;9.60;99.90;;;;;;5036907;28;20084;-85
2022/03/02 11:48:13;;;;;;;30.25;19.35;;;9.70;99.90;;;;;;5036793;28;20073;-85
2022/03/02 11:51:21;;;;;;;31.55;19.67;;;9.80;99.90;;;;;;5041485;28;20105;-86
2022/03/02 11:53:55;;;;;;;27.63;17.95;;;9.90;99.90;;;;;;5036139;28;20107;-86
2022/03/02 11:56:24;;;;;;;30.02;17.85;;;10.00;99.30;;;;;;5036273;28;20111;-86
2022/03/02 11:58:58;;;;;;;29.15;18.10;;;10.10;94.90;;;;;;5036353;28;20132;-86
2022/03/02 12:01:26;;;;;;;27.42;18.27;;;10.00;98.40;;;;;;5036729;28;20069;-86
2022/03/02 12:04:01;;;;;;;28.65;18.10;;;10.00;99.90;;;;;;5018678;28;20492;-87
2022/03/02 12:06:29;;;;;;;26.85;17.33;;;10.10;99.40;;;;;;5036197;28;20514;-86
2022/03/02 12:08:56;;;;;;;25.90;17.38;;;10.10;99.90;;;;;;5036195;28;20041;-86
2022/03/02 12:11:26;;;;;;;29.17;17.20;;;10.30;96.40;;;;;;5035876;28;20116;-86
2022/03/02 12:14:01;;;;;;;30.80;18.00;;;10.20;94.90;;;;;;5035957;28;20037;-87
2022/03/02 12:16:46;;;;;;;30.50;18.95;;;10.10;98.60;;;;;;5018787;28;20379;-87
2022/03/02 12:19:25;;;;;;;24.67;16.25;;;10.10;93.70;;;;;;5036273;28;20472;-86
2022/03/02 12:22:03;;;;;;;27.23;16.70;;;10.00;97.80;;;;;;5036162;28;20047;-86
2022/03/02 12:24:34;;;;;;;26.75;16.73;;;10.10;98.20;;;;;;5018457;28;20079;-86
2022/03/02 12:27:08;;;;;;;27.50;16.15;;;10.30;92.90;;;;;;5036471;28;20403;-86
2022/03/02 12:29:35;;;;;;;25.23;16.33;;;10.30;92.30;;;;;;5002492;28;20472;-86
2022/03/02 12:32:12;;;;;;;30.45;16.38;;;10.30;91.20;;;;;;5036426;28;20136;-86
2022/03/02 12:34:41;;;;;;;26.00;15.80;;;10.30;89.30;;;;;;5036286;28;20049;-87
2022/03/02 12:37:07;;;;;;;25.65;17.15;;;10.30;91.00;;;;;;5036038;28;20064;-86